METAR Data
IDs: Format: Raw Decoded Include TAF

Data at: 1143 UTC 16 Oct 2018

PAVA 161056Z AUTO 05014KT 10SM SCT075 SCT110 03/02 A2911 RMK AO2 SLP940 T00330022 PNO $
PAVA 160956Z AUTO 05013KT 10SM CLR 04/02 A2911 RMK AO2 SLP942 T00390022 PNO $
PAVA 160856Z AUTO 05014G18KT 10SM OVC039 04/03 A2912 RMK AO2 SLP945 6//// T00390028 55002 PNO $
PAVA 160756Z AUTO 05015KT 10SM CLR 04/03 A2912 RMK AO2 SLP945 T00390028 400560033 PNO $
PAVA 160656Z AUTO 06014KT 10SM SCT055 03/02 A2912 RMK AO2 SLP946 T00330022 PNO $
PAVA 160556Z AUTO 05014KT 10SM BKN040 OVC100 04/03 A2913 RMK AO2 SLP947 6//// T00390028 10050 20039 58006 PNO $
PAVA 160456Z AUTO 05014KT 10SM FEW007 BKN050 OVC060 04/03 A2914 RMK AO2 SLP951 T00440033 PNO $
PAVA 160437Z AUTO 05014KT 10SM SCT007 OVC048 04/03 A2914 RMK AO2 PNO $
PAVA 160356Z AUTO 06016KT 10SM OVC009 04/04 A2914 RMK AO2 SLP951 T00440039 PNO $
PAVA 160305Z AUTO 05013G23KT 10SM BKN007 OVC037 05/04 A2915 RMK AO2 PNO $
PAVA 160256Z AUTO 05017G22KT 10SM SCT007 OVC035 05/04 A2915 RMK AO2 SLP954 6//// T00500039 56016 PNO $
PAVA 160156Z AUTO 05015KT 10SM BKN007 OVC035 05/04 A2916 RMK AO2 SLP959 T00500039 PNO $
PAVA 160056Z AUTO 06017G21KT 10SM OVC007 05/04 A2918 RMK AO2 RAE42 SLP964 T00500039 PNO $
PAVA 160014Z AUTO 06016G20KT 10SM -RA BKN007 OVC046 05/04 A2919 RMK AO2 CIG 006V010 PNO $
PAVA 152356Z AUTO 06016KT 10SM -RA FEW009 OVC046 05/04 A2920 RMK AO2 RAB15 SLP970 6//// T00500044 10056 20039 56017 PNO $
PAVA 152256Z AUTO 06014KT 10SM BKN042 OVC049 06/04 A2921 RMK AO2 RAE12 SLP975 T00560039 PNO $
PAVA 152156Z AUTO 06015G20KT 10SM -RA OVC040 05/03 A2923 RMK AO2 SLP982 T00500033 PNO $
PAVA 152032Z AUTO 06019G22KT 10SM -RA FEW009 BKN045 OVC055 04/03 A2925 RMK AO2 PNO $
PAVA 152022Z AUTO 06017KT 10SM -RA SCT011 BKN034 OVC050 04/03 A2925 RMK AO2 PNO $
PAVA 152001Z AUTO 06017G23KT 9SM -RA SCT008 BKN014 OVC050 04/03 A2926 RMK AO2 PNO $
PAVA 151956Z AUTO 06018G23KT 10SM -RA SCT010 BKN018 OVC050 04/03 A2926 RMK AO2 SLP993 T00390033 PNO $
PAVA 151929Z AUTO 06019G23KT 7SM -RA FEW008 BKN013 OVC030 04/03 A2927 RMK AO2 PNO $
PAVA 151920Z AUTO 06019G22KT 9SM -RA FEW010 BKN028 OVC036 04/03 A2927 RMK AO2 PNO $
PAVA 151856Z AUTO 06017G23KT 10SM -RA FEW013 BKN035 OVC042 04/03 A2927 RMK AO2 SLP994 T00390028 PNO $
PAVA 151756Z AUTO 05021G24KT 10SM -RA FEW029 BKN039 OVC048 04/02 A2928 RMK AO2 SLP998 6//// T00390022 10056 20039 58016 PNO $
PAVA 151656Z AUTO 06019G23KT 10SM -RA BKN049 OVC060 04/02 A2929 RMK AO2 SLP003 T00440017 PNO $
PAVA 151556Z AUTO 06019G24KT 10SM -RA BKN050 OVC060 04/02 A2931 RMK AO2 RAB09 SLP009 T00440017 PNO $
PAVA 151456Z AUTO 05018G23KT 10SM BKN060 OVC075 05/02 A2932 RMK AO2 SLP014 6//// T00500017 56022 PNO $
PAVA 151356Z AUTO 05017KT 10SM OVC100 05/02 A2934 RMK AO2 SLP021 T00500017 PNO $
PAVA 151256Z AUTO 06019G22KT 10SM BKN090 BKN120 05/02 A2937 RMK AO2 SLP028 T00500017 PNO $
PAVA 151156Z AUTO 06019KT 10SM OVC100 05/02 A2939 RMK AO2 SLP036 6//// 7//// T00500022 10056 20044 56018 PNO $
PAVA 151056Z AUTO 06016G23KT 10SM CLR 06/02 A2940 RMK AO2 SLP041 T00560022 PNO $
PAVA 150956Z AUTO 06017KT 10SM OVC110 05/03 A2942 RMK AO2 SLP046 T00500028 PNO $
PAVA 150856Z AUTO 06019G22KT 10SM FEW110 05/03 A2944 RMK AO2 SLP054 6//// T00500033 58015 PNO $
PAVA 150756Z AUTO 06016G20KT 10SM BKN110 05/03 A2946 RMK AO2 SLP060 T00500033 400780044 PNO $
PAVA 150656Z AUTO 06014KT 10SM CLR 04/03 A2948 RMK AO2 SLP066 T00440033 PNO $
PAVA 150556Z AUTO 06014G18KT 10SM CLR 06/04 A2949 RMK AO2 SLP069 6//// T00560039 10078 20056 56005 PNO $
PAVA 150456Z AUTO 07013KT 10SM BKN090 06/04 A2949 RMK AO2 SLP070 T00560039 PNO $
PAVA 150356Z AUTO 06013KT 10SM BKN048 07/04 A2950 RMK AO2 RAB08E18 SLP072 T00670044 PNO $
PAVA 150256Z AUTO 07012G18KT 10SM OVC050 07/05 A2950 RMK AO2 SLP075 6//// T00720050 56011 PNO $
PAVA 150156Z AUTO 08014KT 10SM OVC060 07/05 A2951 RMK AO2 RAB18E30 SLP076 T00720050 PNO $
PAVA 150056Z AUTO 08014KT 10SM OVC048 08/05 A2952 RMK AO2 SLP079 T00780050 PNO $
PAVA 142356Z AUTO 08013KT 10SM OVC040 07/05 A2953 RMK AO2 RAE02 SLP086 6//// T00670050 10067 20044 58005 PNO $